Atlanta, Georgia
Traffic Map
Current Weather Conditions
Atlanta, Georgia
Broken Clouds
Broken Clouds
79°
Feels Like: 82°
Wind Chill: 79° Ceiling: 25000
Heat Index: 82° Visibility: 10mi
Dew Point: 74° Wind: 3mph
Humidity: 84% Direction: 230° (SW)
Pressure: 29.94in Gusts: 0mph
Raw Report DataKATL 240452Z 23003KT 10SM FEW080 FEW110 SCT200 BKN250 26/23 A2994 RMK AO2 SLP125 T02610233 403330239
Traffic Incident Summary
Active as of:
Severity:
Category:
InformationThere was an issue retrieving the traffic information for this location. Please try a different location or try again shortly.
Advertisements
Track Severe Weather on mobile